createdAt,value
2019-06-26T00:02:19.396Z,2.70
2019-06-26T00:04:50.072Z,2.98
2019-06-26T00:07:20.709Z,2.80
2019-06-26T00:09:50.990Z,3.20
2019-06-26T00:12:22.310Z,2.70
2019-06-26T00:14:52.601Z,2.72
2019-06-26T00:17:22.904Z,3.02
2019-06-26T00:19:53.305Z,3.00
2019-06-26T00:22:23.602Z,3.30
2019-06-26T00:24:53.875Z,3.60
2019-06-26T00:27:24.426Z,3.50
2019-06-26T00:29:56.890Z,3.33
2019-06-26T00:32:27.945Z,3.52
2019-06-26T00:34:58.616Z,3.45
2019-06-26T00:37:28.913Z,3.27
2019-06-26T00:39:59.206Z,3.35
2019-06-26T00:42:29.785Z,3.62
2019-06-26T00:45:00.073Z,3.55
2019-06-26T00:47:30.386Z,3.70
2019-06-26T00:50:01.296Z,3.90
2019-06-26T00:52:32.219Z,4.08
2019-06-26T00:55:05.602Z,3.60
2019-06-26T00:57:37.573Z,3.90
2019-06-26T01:00:10.797Z,4.50
2019-06-26T01:02:41.392Z,3.83
2019-06-26T01:05:13.525Z,3.87
2019-06-26T01:07:44.379Z,4.53
2019-06-26T01:10:15.272Z,4.47
2019-06-26T01:12:45.724Z,4.58
2019-06-26T01:15:17.278Z,4.47
2019-06-26T01:17:47.879Z,4.65
2019-06-26T01:20:18.559Z,4.87
2019-06-26T01:22:49.772Z,4.85
2019-06-26T01:25:21.857Z,4.17
2019-06-26T01:27:52.169Z,4.20
2019-06-26T01:30:23.782Z,4.80
2019-06-26T01:32:54.328Z,4.55
2019-06-26T01:35:25.919Z,4.92
2019-06-26T01:37:56.242Z,5.15
2019-06-26T01:40:28.465Z,5.45
2019-06-26T01:42:58.865Z,5.47
2019-06-26T01:45:29.452Z,5.80
2019-06-26T01:48:01.618Z,4.80
2019-06-26T01:50:33.379Z,4.92
2019-06-26T01:53:03.655Z,5.30
2019-06-26T01:55:34.684Z,4.90
2019-06-26T01:58:04.993Z,5.35
2019-06-26T02:00:36.792Z,5.72
2019-06-26T02:03:07.180Z,4.78
2019-06-26T02:05:37.496Z,5.30
2019-06-26T02:08:07.837Z,5.25
2019-06-26T02:10:39.907Z,4.90
2019-06-26T02:13:10.580Z,5.35
2019-06-26T02:15:40.947Z,5.12
2019-06-26T02:18:40.292Z,5.35
2019-06-26T02:21:10.703Z,5.35
2019-06-26T02:23:41.018Z,5.25
2019-06-26T02:26:11.948Z,5.80
2019-06-26T02:28:43.682Z,5.22
2019-06-26T02:31:14.749Z,5.62
2019-06-26T02:33:45.041Z,5.53
2019-06-26T02:36:15.341Z,5.40
2019-06-26T02:38:45.641Z,5.90
2019-06-26T02:41:15.958Z,5.72
2019-06-26T02:43:46.392Z,5.75
2019-06-26T02:46:17.540Z,5.47
2019-06-26T02:48:48.054Z,5.22
2019-06-26T02:51:18.674Z,5.55
2019-06-26T02:53:48.968Z,5.47
2019-06-26T02:56:20.157Z,5.00
2019-06-26T02:58:50.530Z,5.47
2019-06-26T03:01:22.167Z,5.75
2019-06-26T03:03:53.571Z,6.20
2019-06-26T03:06:23.864Z,5.87
2019-06-26T03:08:54.386Z,5.03
2019-06-26T03:11:29.727Z,5.17
2019-06-26T03:14:00.559Z,6.00
2019-06-26T03:16:30.886Z,5.85
2019-06-26T03:19:01.860Z,5.45
2019-06-26T03:21:33.653Z,5.97
2019-06-26T03:24:03.941Z,5.37
2019-06-26T03:26:34.261Z,5.40
2019-06-26T03:29:05.979Z,5.15
2019-06-26T03:31:36.271Z,5.33
2019-06-26T03:34:06.788Z,5.15
2019-06-26T03:36:37.445Z,6.25
2019-06-26T03:39:08.678Z,5.60
2019-06-26T03:41:39.038Z,6.17
2019-06-26T03:44:09.319Z,5.50
2019-06-26T03:46:39.630Z,5.65
2019-06-26T03:49:09.947Z,6.25
2019-06-26T03:51:40.371Z,5.50
2019-06-26T03:54:14.669Z,5.90
2019-06-26T03:56:44.980Z,6.20
2019-06-26T03:59:15.297Z,5.67
2019-06-26T04:01:48.385Z,5.97
2019-06-26T04:04:19.100Z,5.78
2019-06-26T04:06:49.732Z,5.47
2019-06-26T04:09:20.077Z,5.67
2019-06-26T04:11:51.481Z,5.65
2019-06-26T04:14:22.635Z,5.85
2019-06-26T04:16:52.931Z,5.47
2019-06-26T04:19:23.318Z,6.12
2019-06-26T04:21:53.623Z,5.70
2019-06-26T04:24:23.908Z,4.97
2019-06-26T04:26:54.184Z,5.15
2019-06-26T04:29:24.517Z,5.87
2019-06-26T04:31:54.837Z,5.92
2019-06-26T04:34:25.162Z,5.55
2019-06-26T04:36:55.612Z,6.37
2019-06-26T04:39:25.918Z,6.20
2019-06-26T04:41:56.271Z,5.83
2019-06-26T04:44:26.612Z,6.12
2019-06-26T04:46:57.244Z,6.42
2019-06-26T04:49:27.731Z,5.92
2019-06-26T04:51:58.754Z,5.92
2019-06-26T04:54:29.737Z,6.55
2019-06-26T04:57:00.280Z,6.53
2019-06-26T04:59:34.162Z,6.70
2019-06-26T05:02:06.736Z,7.47
2019-06-26T05:04:37.377Z,7.22
2019-06-26T05:07:08.054Z,6.87
2019-06-26T05:09:38.668Z,6.97
2019-06-26T05:12:08.992Z,7.25
2019-06-26T05:14:39.304Z,7.90
2019-06-26T05:17:10.339Z,8.10
2019-06-26T05:19:42.081Z,8.60
2019-06-26T05:22:12.421Z,7.37
2019-06-26T05:24:46.229Z,7.90
2019-06-26T05:27:18.389Z,8.15
2019-06-26T05:29:49.359Z,7.33
2019-06-26T05:32:20.873Z,7.53
2019-06-26T05:34:51.210Z,8.00
2019-06-26T05:37:21.510Z,7.33
2019-06-26T05:39:54.749Z,6.97
2019-06-26T05:42:25.007Z,7.30
2019-06-26T05:44:58.135Z,7.03
2019-06-26T05:47:29.395Z,6.55
2019-06-26T05:50:00.216Z,6.97
2019-06-26T05:52:30.594Z,6.65
2019-06-26T05:55:01.073Z,6.40
2019-06-26T05:57:31.382Z,7.12
2019-06-26T06:00:01.707Z,7.08
2019-06-26T06:02:32.058Z,6.75
2019-06-26T06:05:02.454Z,8.23
2019-06-26T06:07:33.927Z,6.70
2019-06-26T06:10:04.506Z,7.55
2019-06-26T06:12:34.801Z,7.40
2019-06-26T06:15:05.619Z,7.87
2019-06-26T06:17:35.915Z,8.00
2019-06-26T06:20:07.982Z,9.23
2019-06-26T06:22:38.294Z,7.35
2019-06-26T06:25:08.699Z,7.87
2019-06-26T06:27:41.494Z,7.15
2019-06-26T06:30:12.097Z,6.95
2019-06-26T06:32:43.998Z,7.65
2019-06-26T06:35:16.385Z,7.80
2019-06-26T06:37:46.665Z,7.42
2019-06-26T06:40:17.295Z,7.70
2019-06-26T06:42:48.126Z,7.17
2019-06-26T06:45:18.824Z,7.58
2019-06-26T06:47:50.104Z,7.05
2019-06-26T06:50:20.497Z,7.28
2019-06-26T06:52:50.798Z,8.23
2019-06-26T06:55:21.974Z,8.20
2019-06-26T06:57:52.701Z,7.80
2019-06-26T07:00:23.095Z,8.10
2019-06-26T07:02:54.468Z,8.45
2019-06-26T07:05:25.938Z,8.08
2019-06-26T07:07:56.229Z,7.97
2019-06-26T07:10:26.647Z,9.90
2019-06-26T07:12:57.009Z,8.83
2019-06-26T07:15:29.357Z,8.43
2019-06-26T07:18:00.065Z,7.75
2019-06-26T07:20:30.378Z,8.10
2019-06-26T07:23:04.817Z,9.10
2019-06-26T07:25:35.113Z,8.18
2019-06-26T07:28:05.486Z,8.83
2019-06-26T07:30:35.913Z,7.75
2019-06-26T07:33:06.372Z,7.90
2019-06-26T07:35:36.943Z,7.78
2019-06-26T07:38:18.281Z,8.58
2019-06-26T07:40:49.173Z,8.80
2019-06-26T07:43:20.694Z,8.55
2019-06-26T07:45:51.892Z,9.03
2019-06-26T07:48:23.693Z,8.98
2019-06-26T07:50:54.406Z,9.00
2019-06-26T07:53:24.714Z,10.20
2019-06-26T07:55:57.671Z,9.05
2019-06-26T07:58:28.411Z,9.20
2019-06-26T08:01:01.098Z,9.15
2019-06-26T08:03:31.461Z,9.40
2019-06-26T08:06:02.183Z,10.05
2019-06-26T08:08:32.687Z,8.88
2019-06-26T08:11:06.281Z,8.95
2019-06-26T08:13:35.029Z,9.15
2019-06-26T08:16:05.312Z,9.48
2019-06-26T08:18:35.908Z,8.23
2019-06-26T08:21:12.508Z,8.83
2019-06-26T08:23:38.184Z,7.75
2019-06-26T08:26:08.484Z,7.42
2019-06-26T08:28:38.821Z,7.47
2019-06-26T08:31:09.910Z,7.55
2019-06-26T08:33:40.246Z,7.37
2019-06-26T08:36:10.895Z,7.33
2019-06-26T08:38:41.212Z,7.42
2019-06-26T08:41:11.843Z,6.78
2019-06-26T08:43:42.280Z,7.12
2019-06-26T08:46:12.609Z,7.40
2019-06-26T08:48:44.060Z,7.40
2019-06-26T08:51:14.365Z,6.10
2019-06-26T08:53:45.039Z,6.75
2019-06-26T08:56:15.637Z,6.55
2019-06-26T08:58:46.365Z,6.80
2019-06-26T09:01:16.699Z,6.60
2019-06-26T09:03:47.399Z,6.33
2019-06-26T09:06:18.777Z,6.42
2019-06-26T09:08:49.172Z,6.80
2019-06-26T09:11:19.786Z,5.90
2019-06-26T09:13:50.129Z,6.42
2019-06-26T09:16:20.472Z,6.53
2019-06-26T09:19:03.055Z,6.95
2019-06-26T09:21:36.123Z,7.05
2019-06-26T09:24:06.590Z,6.80
2019-06-26T09:26:37.060Z,5.92
2019-06-26T09:29:07.669Z,6.00
2019-06-26T09:31:39.912Z,6.10
2019-06-26T09:34:10.306Z,6.17
2019-06-26T09:36:52.161Z,5.33
2019-06-26T09:39:22.471Z,5.40
2019-06-26T09:41:52.792Z,4.85
2019-06-26T09:44:23.839Z,5.25
2019-06-26T09:46:54.148Z,5.83
2019-06-26T09:49:24.746Z,5.30
2019-06-26T09:51:55.069Z,4.95
2019-06-26T09:54:25.361Z,5.47
2019-06-26T09:56:56.641Z,5.47
2019-06-26T09:59:29.595Z,5.42
2019-06-26T10:01:59.915Z,5.40
2019-06-26T10:04:30.308Z,5.62
2019-06-26T10:07:01.137Z,5.78
2019-06-26T10:09:31.538Z,5.80
2019-06-26T10:12:01.862Z,5.35
2019-06-26T10:14:46.467Z,5.72
2019-06-26T10:17:04.174Z,5.33
2019-06-26T10:19:35.405Z,4.20
2019-06-26T10:22:10.047Z,5.47
2019-06-26T10:24:40.343Z,5.08
2019-06-26T10:27:10.666Z,4.80
2019-06-26T10:29:40.944Z,4.85
2019-06-26T10:34:43.303Z,5.37
2019-06-26T10:37:13.640Z,5.60
2019-06-26T10:39:44.042Z,6.17
2019-06-26T10:42:14.430Z,5.60
2019-06-26T10:44:45.187Z,5.67
2019-06-26T10:47:17.558Z,5.30
2019-06-26T10:49:47.808Z,6.60
2019-06-26T10:52:18.227Z,5.87
2019-06-26T10:54:48.536Z,5.80
2019-06-26T10:57:19.252Z,5.60
2019-06-26T10:59:49.720Z,6.60
2019-06-26T11:02:19.986Z,6.50
2019-06-26T11:04:50.425Z,7.00
2019-06-26T11:07:20.916Z,6.75
2019-06-26T11:09:51.284Z,6.90
2019-06-26T11:12:22.137Z,6.65
2019-06-26T11:14:53.077Z,7.37
2019-06-26T11:17:23.689Z,7.03
2019-06-26T11:19:55.572Z,6.92
2019-06-26T11:22:28.671Z,6.97
2019-06-26T11:24:59.056Z,7.20
2019-06-26T11:27:29.385Z,7.85
2019-06-26T11:30:00.652Z,7.42
2019-06-26T11:32:31.048Z,7.17
2019-06-26T11:35:01.371Z,7.90
2019-06-26T11:37:32.025Z,7.47
2019-06-26T11:40:02.380Z,7.83
2019-06-26T11:42:33.169Z,8.70
2019-06-26T11:45:03.501Z,7.83
2019-06-26T11:47:34.128Z,8.58
2019-06-26T11:50:05.611Z,8.00
2019-06-26T11:52:37.457Z,7.78
2019-06-26T11:55:10.223Z,8.05
2019-06-26T11:57:40.600Z,7.97
2019-06-26T12:00:12.825Z,7.17
2019-06-26T12:02:43.116Z,7.92
2019-06-26T12:05:13.968Z,8.28
2019-06-26T12:07:44.295Z,8.03
2019-06-26T12:10:15.891Z,8.13
2019-06-26T12:12:46.863Z,8.28
2019-06-26T12:15:19.328Z,9.75
2019-06-26T12:17:51.070Z,10.68
2019-06-26T12:20:23.167Z,11.38
2019-06-26T12:22:54.628Z,11.33
2019-06-26T12:25:25.951Z,12.65
2019-06-26T12:27:56.154Z,11.75
2019-06-26T12:30:26.480Z,12.70
2019-06-26T12:33:03.064Z,12.55
2019-06-26T12:35:36.745Z,10.93
2019-06-26T12:38:07.109Z,9.58
2019-06-26T12:40:49.287Z,10.68
2019-06-26T12:43:20.886Z,10.80
2019-06-26T12:45:51.165Z,11.03
2019-06-26T12:48:22.573Z,12.25
2019-06-26T12:50:52.973Z,11.85
2019-06-26T12:53:23.445Z,11.05
2019-06-26T12:55:55.205Z,13.00
2019-06-26T12:58:25.618Z,10.78
2019-06-26T13:00:57.473Z,11.45
2019-06-26T13:03:27.980Z,11.08
2019-06-26T13:05:58.484Z,11.05
2019-06-26T13:08:30.399Z,11.12
2019-06-26T13:11:00.729Z,10.53
2019-06-26T13:13:31.553Z,11.40
2019-06-26T13:16:01.852Z,11.28
2019-06-26T13:18:33.139Z,11.55
2019-06-26T13:21:05.258Z,11.10
2019-06-26T13:23:36.105Z,12.03
2019-06-26T13:26:06.962Z,11.93
2019-06-26T13:28:39.013Z,11.55
2019-06-26T13:31:09.749Z,11.90
2019-06-26T13:34:21.177Z,10.43
2019-06-26T13:36:56.479Z,10.80
2019-06-26T13:39:49.341Z,10.60
2019-06-26T13:42:46.395Z,10.32
2019-06-26T13:45:23.869Z,10.20
2019-06-26T13:47:55.750Z,10.35
2019-06-26T13:51:08.280Z,9.68
2019-06-26T13:53:59.770Z,8.43
2019-06-26T13:57:15.022Z,8.68
2019-06-26T14:00:14.501Z,9.20
2019-06-26T14:02:57.589Z,8.88
2019-06-26T14:05:53.089Z,8.78
2019-06-26T14:11:47.509Z,8.35
2019-06-26T14:14:20.548Z,8.93
2019-06-26T14:16:51.062Z,8.60
2019-06-26T14:19:21.537Z,8.00
2019-06-26T14:21:52.546Z,9.73
2019-06-26T14:24:23.996Z,10.50
2019-06-26T14:26:54.782Z,9.28
2019-06-26T14:29:28.371Z,8.33
2019-06-26T14:31:58.778Z,8.98
2019-06-26T14:34:29.886Z,10.00
2019-06-26T14:37:00.502Z,9.90
2019-06-26T14:39:30.928Z,10.13
2019-06-26T14:42:04.296Z,9.83
2019-06-26T14:44:34.582Z,10.23
2019-06-26T14:47:04.985Z,9.80
2019-06-26T14:49:35.304Z,9.03
2019-06-26T14:52:05.686Z,10.55
2019-06-26T14:54:39.373Z,9.50
2019-06-26T14:57:09.756Z,9.63
2019-06-26T14:59:40.884Z,10.82
2019-06-26T15:02:11.078Z,10.20
2019-06-26T15:04:46.161Z,9.50
2019-06-26T15:07:16.660Z,10.60
2019-06-26T15:09:53.228Z,9.45
2019-06-26T15:12:27.236Z,8.55
2019-06-26T15:14:58.860Z,10.80
2019-06-26T15:17:29.396Z,9.00
2019-06-26T15:20:02.375Z,8.45
2019-06-26T15:22:33.023Z,8.70
2019-06-26T15:25:06.567Z,8.60
2019-06-26T15:27:39.467Z,8.78
2019-06-26T15:30:13.274Z,8.68
2019-06-26T15:32:43.591Z,8.03
2019-06-26T15:35:51.735Z,7.25
2019-06-26T15:38:46.351Z,7.67
2019-06-26T15:41:15.288Z,7.90
2019-06-26T15:43:48.572Z,7.10
2019-06-26T15:46:19.928Z,7.65
2019-06-26T15:48:50.629Z,7.40
2019-06-26T15:51:24.337Z,7.80
2019-06-26T15:53:59.873Z,7.67
2019-06-26T15:56:28.847Z,7.47
2019-06-26T15:58:59.162Z,8.15
2019-06-26T16:01:33.280Z,8.65
2019-06-26T16:04:03.629Z,8.10
2019-06-26T16:06:35.263Z,8.93
2019-06-26T16:09:07.440Z,8.48
2019-06-26T16:11:37.807Z,8.65
2019-06-26T16:14:10.101Z,8.73
2019-06-26T16:16:42.214Z,8.75
2019-06-26T16:19:15.599Z,8.65
2019-06-26T16:21:46.695Z,9.30
2019-06-26T16:24:18.436Z,9.43
2019-06-26T16:26:49.995Z,10.90
2019-06-26T16:29:20.661Z,9.55
2019-06-26T16:31:50.992Z,9.58
2019-06-26T16:34:21.410Z,10.48
2019-06-26T16:36:51.585Z,11.05
2019-06-26T16:39:23.264Z,10.40
2019-06-26T16:41:53.927Z,10.60
2019-06-26T16:44:24.266Z,10.70
2019-06-26T16:46:54.591Z,10.65
2019-06-26T16:49:27.477Z,10.30
2019-06-26T16:51:59.307Z,10.72
2019-06-26T16:54:29.815Z,9.05
2019-06-26T16:57:01.638Z,9.70
2019-06-26T16:59:32.458Z,10.00
2019-06-26T17:02:07.038Z,12.10
2019-06-26T17:04:36.381Z,9.73
2019-06-26T17:07:09.120Z,11.93
2019-06-26T17:09:39.580Z,10.35
2019-06-26T17:12:11.095Z,11.00
2019-06-26T17:14:42.907Z,11.53
2019-06-26T17:17:14.197Z,12.15
2019-06-26T17:19:44.874Z,11.93
2019-06-26T17:22:15.255Z,10.15
2019-06-26T17:24:46.164Z,10.45
2019-06-26T17:27:16.558Z,9.23
2019-06-26T17:29:49.250Z,8.85
2019-06-26T17:32:19.977Z,11.45
2019-06-26T17:34:50.674Z,11.50
2019-06-26T17:37:21.033Z,10.18
2019-06-26T17:39:51.409Z,10.60
2019-06-26T17:42:21.827Z,9.50
2019-06-26T17:44:52.454Z,9.65
2019-06-26T17:47:22.808Z,9.93
2019-06-26T17:49:53.237Z,9.48
2019-06-26T17:52:23.662Z,9.88
2019-06-26T17:54:54.071Z,9.63
2019-06-26T17:57:24.814Z,10.00
2019-06-26T17:59:55.219Z,10.08
2019-06-26T18:02:25.519Z,10.75
2019-06-26T18:04:56.147Z,10.63
2019-06-26T18:07:26.415Z,11.55
2019-06-26T18:09:56.814Z,12.05
2019-06-26T18:12:28.553Z,11.85
2019-06-26T18:15:00.003Z,10.25
2019-06-26T18:17:30.956Z,10.03
2019-06-26T18:20:01.336Z,10.15
2019-06-26T18:22:32.778Z,10.85
2019-06-26T18:25:04.878Z,11.12
2019-06-26T18:27:35.644Z,9.68
2019-06-26T18:30:08.803Z,11.50
2019-06-26T18:32:39.224Z,10.78
2019-06-26T18:35:09.547Z,11.85
2019-06-26T18:37:39.952Z,12.93
2019-06-26T18:40:12.931Z,12.20
2019-06-26T18:42:43.387Z,12.53
2019-06-26T18:45:13.844Z,14.20
2019-06-26T18:47:44.191Z,14.40
2019-06-26T18:50:14.929Z,14.85
2019-06-26T18:52:45.229Z,13.10
2019-06-26T18:55:15.674Z,13.50
2019-06-26T18:57:46.094Z,14.63
2019-06-26T19:00:21.011Z,15.20
2019-06-26T19:02:51.423Z,15.30
2019-06-26T19:05:22.369Z,16.20
2019-06-26T19:07:52.668Z,17.45
2019-06-26T19:10:23.013Z,15.88
2019-06-26T19:12:54.262Z,16.00
2019-06-26T19:15:24.613Z,15.68
2019-06-26T19:17:54.990Z,15.93
2019-06-26T19:20:25.622Z,16.75
2019-06-26T19:22:56.312Z,16.70
2019-06-26T19:25:26.676Z,15.98
2019-06-26T19:27:57.417Z,15.68
2019-06-26T19:30:27.800Z,15.75
2019-06-26T19:32:58.264Z,15.18
2019-06-26T19:35:28.678Z,16.93
2019-06-26T19:37:59.096Z,16.17
2019-06-26T19:40:29.329Z,15.53
2019-06-26T19:42:59.737Z,16.50
2019-06-26T19:45:29.994Z,15.30
2019-06-26T19:48:00.368Z,15.40
2019-06-26T19:50:30.699Z,16.23
2019-06-26T19:53:01.035Z,17.07
2019-06-26T19:55:31.347Z,18.30
2019-06-26T19:58:01.700Z,19.80
2019-06-26T20:00:32.027Z,19.37
2019-06-26T20:03:02.369Z,18.60
2019-06-26T20:05:33.125Z,18.80
2019-06-26T20:08:03.459Z,19.23
2019-06-26T20:10:33.901Z,19.27
2019-06-26T20:13:04.254Z,18.82
2019-06-26T20:15:35.766Z,19.98
2019-06-26T20:18:06.214Z,19.73
2019-06-26T20:20:36.619Z,19.02
2019-06-26T20:23:06.948Z,19.52
2019-06-26T20:25:37.407Z,19.25
2019-06-26T20:28:08.427Z,18.60
2019-06-26T20:30:39.876Z,19.00
2019-06-26T20:33:10.243Z,19.05
2019-06-26T20:35:40.632Z,17.62
2019-06-26T20:38:10.974Z,16.52
2019-06-26T20:40:41.296Z,19.25
2019-06-26T20:43:12.085Z,18.42
2019-06-26T20:45:42.442Z,19.32
2019-06-26T20:48:13.522Z,19.20
2019-06-26T20:50:44.667Z,20.57
2019-06-26T20:53:15.055Z,19.55
2019-06-26T20:55:45.335Z,21.00
2019-06-26T20:58:15.914Z,18.75
2019-06-26T21:00:46.292Z,19.55
2019-06-26T21:03:16.941Z,20.23
2019-06-26T21:05:47.937Z,19.17
2019-06-26T21:08:18.294Z,18.98
2019-06-26T21:10:48.728Z,19.40
2019-06-26T21:13:19.527Z,19.02
2019-06-26T21:15:52.941Z,18.40
2019-06-26T21:18:21.950Z,17.95
2019-06-26T21:20:52.652Z,18.42
2019-06-26T21:23:23.781Z,17.77
2019-06-26T21:25:54.086Z,17.17
2019-06-26T21:28:24.957Z,18.27
2019-06-26T21:30:55.678Z,18.90
2019-06-26T21:33:26.811Z,18.77
2019-06-26T21:35:57.129Z,17.27
2019-06-26T21:38:27.769Z,17.00
2019-06-26T21:40:58.400Z,18.27
2019-06-26T21:43:29.313Z,17.40
2019-06-26T21:45:59.644Z,17.92
2019-06-26T21:48:30.407Z,19.17
2019-06-26T21:51:00.699Z,19.15
2019-06-26T21:53:33.346Z,18.95
2019-06-26T21:56:04.964Z,19.90
2019-06-26T21:58:35.483Z,18.77
2019-06-26T22:01:05.788Z,18.85
2019-06-26T22:03:36.702Z,19.15
2019-06-26T22:06:07.018Z,19.05
2019-06-26T22:08:40.041Z,17.77
2019-06-26T22:11:10.647Z,17.67
2019-06-26T22:13:40.972Z,21.05
2019-06-26T22:16:12.160Z,20.48
2019-06-26T22:18:42.532Z,19.92
2019-06-26T22:21:12.854Z,19.05
2019-06-26T22:23:43.181Z,20.32
2019-06-26T22:26:15.597Z,19.45
2019-06-26T22:28:46.257Z,17.65
2019-06-26T22:31:16.642Z,17.82
2019-06-26T22:33:47.214Z,19.60
2019-06-26T22:36:17.534Z,18.45
2019-06-26T22:38:47.857Z,17.70
2019-06-26T22:41:18.501Z,18.23
2019-06-26T22:43:49.284Z,17.52
2019-06-26T22:46:20.289Z,17.07
2019-06-26T22:48:52.028Z,17.70
2019-06-26T22:51:22.351Z,17.73
2019-06-26T22:53:52.797Z,17.82
2019-06-26T22:56:23.246Z,16.77
2019-06-26T22:58:54.015Z,17.85
2019-06-26T23:01:24.371Z,17.05
2019-06-26T23:03:54.723Z,15.05
2019-06-26T23:06:25.020Z,14.47
2019-06-26T23:08:55.418Z,13.70
2019-06-26T23:11:26.152Z,12.55
2019-06-26T23:13:56.456Z,11.78
2019-06-26T23:16:27.149Z,11.60
2019-06-26T23:18:57.817Z,11.70
2019-06-26T23:21:28.307Z,11.10
2019-06-26T23:23:59.816Z,11.30
2019-06-26T23:26:30.485Z,10.68
2019-06-26T23:29:00.827Z,10.23
2019-06-26T23:31:31.188Z,10.60
2019-06-26T23:34:01.563Z,10.78
2019-06-26T23:36:32.877Z,10.93
2019-06-26T23:39:03.779Z,10.70
2019-06-26T23:41:34.087Z,10.30
2019-06-26T23:44:04.469Z,9.58
2019-06-26T23:46:34.752Z,9.60
2019-06-26T23:49:05.436Z,10.23
2019-06-26T23:51:36.344Z,10.58
2019-06-26T23:54:06.692Z,10.30
2019-06-26T23:56:40.670Z,9.25
2019-06-26T23:59:09.054Z,9.33
